createdAt,value
2017-12-09T00:02:26.287Z,-1.40
2017-12-09T00:04:54.576Z,-1.30
2017-12-09T00:07:22.090Z,-1.40
2017-12-09T00:09:49.612Z,-1.40
2017-12-09T00:12:17.114Z,-1.40
2017-12-09T00:14:44.640Z,-1.40
2017-12-09T00:17:12.134Z,-1.40
2017-12-09T00:19:39.651Z,-1.40
2017-12-09T00:22:07.160Z,-1.40
2017-12-09T00:24:34.679Z,-1.40
2017-12-09T00:27:02.183Z,-1.50
2017-12-09T00:29:31.206Z,-1.50
2017-12-09T00:31:58.710Z,-1.50
2017-12-09T00:34:26.992Z,-1.60
2017-12-09T00:36:54.486Z,-1.60
2017-12-09T00:39:22.779Z,-1.50
2017-12-09T00:41:50.286Z,-1.50
2017-12-09T00:44:17.807Z,-1.60
2017-12-09T00:46:45.307Z,-1.60
2017-12-09T00:49:12.833Z,-1.60
2017-12-09T00:51:40.366Z,-1.60
2017-12-09T00:54:07.911Z,-1.60
2017-12-09T00:56:36.179Z,-1.70
2017-12-09T00:59:04.443Z,-1.60
2017-12-09T01:01:31.970Z,-1.70
2017-12-09T01:03:59.463Z,-1.60
2017-12-09T01:06:26.987Z,-1.70
2017-12-09T01:08:54.490Z,-1.60
2017-12-09T01:11:22.771Z,-1.70
2017-12-09T01:13:51.051Z,-1.70
2017-12-09T01:16:31.163Z,-1.70
2017-12-09T01:18:59.460Z,-1.70
2017-12-09T01:21:30.827Z,-1.70
2017-12-09T01:23:59.095Z,-1.70
2017-12-09T01:26:27.378Z,-1.70
2017-12-09T01:28:55.647Z,-1.70
2017-12-09T01:31:23.931Z,-1.80
2017-12-09T01:33:52.203Z,-1.80
2017-12-09T01:36:20.507Z,-1.80
2017-12-09T01:38:48.012Z,-1.90
2017-12-09T01:41:15.506Z,-1.80
2017-12-09T01:43:43.027Z,-1.90
2017-12-09T01:46:10.531Z,-1.80
2017-12-09T01:48:38.046Z,-1.80
2017-12-09T01:51:05.543Z,-1.90
2017-12-09T01:53:33.059Z,-1.90
2017-12-09T01:56:00.560Z,-2.00
2017-12-09T01:58:28.082Z,-2.00
2017-12-09T02:00:55.584Z,-1.90
2017-12-09T02:03:23.098Z,-2.00
2017-12-09T02:05:50.606Z,-2.10
2017-12-09T02:08:18.121Z,-2.20
2017-12-09T02:10:45.627Z,-2.30
2017-12-09T02:13:13.152Z,-2.30
2017-12-09T02:15:41.422Z,-2.20
2017-12-09T02:18:09.691Z,-2.10
2017-12-09T02:20:37.979Z,-2.10
2017-12-09T02:23:06.252Z,-2.10
2017-12-09T02:25:34.534Z,-2.00
2017-12-09T02:28:02.811Z,-1.90
2017-12-09T02:30:31.099Z,-1.90
2017-12-09T02:32:58.604Z,-2.00
2017-12-09T02:35:26.127Z,-1.90
2017-12-09T02:37:53.689Z,-1.90
2017-12-09T02:40:21.240Z,-2.00
2017-12-09T02:42:48.751Z,-1.90
2017-12-09T02:45:16.258Z,-2.00
2017-12-09T02:47:43.788Z,-2.00
2017-12-09T02:50:12.052Z,-1.90
2017-12-09T02:52:40.338Z,-1.90
2017-12-09T02:55:08.603Z,-1.90
2017-12-09T02:57:36.127Z,-1.90
2017-12-09T03:00:03.626Z,-1.90
2017-12-09T03:02:31.915Z,-1.90
2017-12-09T03:05:00.186Z,-1.90
2017-12-09T03:07:27.735Z,-1.90
2017-12-09T03:09:56.014Z,-1.90
2017-12-09T03:12:24.283Z,-2.00
2017-12-09T03:14:51.804Z,-2.00
2017-12-09T03:17:19.323Z,-1.90
2017-12-09T03:19:46.840Z,-2.00
2017-12-09T03:22:14.342Z,-2.00
2017-12-09T03:24:41.871Z,-2.00
2017-12-09T03:27:09.374Z,-2.00
2017-12-09T03:29:36.886Z,-2.00
2017-12-09T03:32:04.402Z,-2.10
2017-12-09T03:34:31.935Z,-2.10
2017-12-09T03:36:59.443Z,-2.10
2017-12-09T03:39:26.946Z,-2.00
2017-12-09T03:41:54.463Z,-2.00
2017-12-09T03:44:21.966Z,-2.10
2017-12-09T03:46:49.482Z,-2.10
2017-12-09T03:49:16.991Z,-2.10
2017-12-09T03:51:44.507Z,-2.00
2017-12-09T03:54:12.007Z,-2.10
2017-12-09T03:56:39.527Z,-2.20
2017-12-09T03:59:07.813Z,-2.10
2017-12-09T04:01:36.171Z,-2.10
2017-12-09T04:04:03.672Z,-2.20
2017-12-09T04:06:31.195Z,-2.20
2017-12-09T04:08:58.695Z,-2.20
2017-12-09T04:11:26.212Z,-2.20
2017-12-09T04:13:54.512Z,-2.30
2017-12-09T04:16:22.052Z,-2.40
2017-12-09T04:18:50.323Z,-2.40
2017-12-09T04:21:18.596Z,-2.50
2017-12-09T04:23:46.888Z,-2.60
2017-12-09T04:26:15.152Z,-2.80
2017-12-09T04:28:43.443Z,-2.80
2017-12-09T04:31:11.707Z,-2.80
2017-12-09T04:33:39.986Z,-2.90
2017-12-09T04:36:08.251Z,-2.90
2017-12-09T04:38:36.538Z,-2.90
2017-12-09T04:41:04.807Z,-2.90
2017-12-09T04:43:33.099Z,-2.90
2017-12-09T04:46:01.382Z,-2.80
2017-12-09T04:48:28.904Z,-2.90
2017-12-09T04:50:56.408Z,-2.80
2017-12-09T04:53:23.918Z,-2.80
2017-12-09T04:55:51.419Z,-2.80
2017-12-09T04:58:18.952Z,-2.90
2017-12-09T05:00:47.218Z,-2.90
2017-12-09T05:03:14.735Z,-2.90
2017-12-09T05:05:43.019Z,-2.90
2017-12-09T05:08:10.543Z,-2.90
2017-12-09T05:10:38.038Z,-2.80
2017-12-09T05:13:05.531Z,-2.80
2017-12-09T05:15:33.051Z,-2.80
2017-12-09T05:18:00.551Z,-2.80
2017-12-09T05:20:28.842Z,-2.80
2017-12-09T05:22:57.112Z,-2.80
2017-12-09T05:25:25.399Z,-2.70
2017-12-09T05:27:52.900Z,-2.70
2017-12-09T05:30:21.187Z,-2.70
2017-12-09T05:35:22.595Z,-2.60
2017-12-09T05:37:50.860Z,-2.80
2017-12-09T05:40:19.144Z,-2.80
2017-12-09T05:42:47.406Z,-2.90
2017-12-09T05:45:15.695Z,-2.90
2017-12-09T05:47:43.968Z,-2.90
2017-12-09T05:50:12.256Z,-2.90
2017-12-09T05:52:39.767Z,-2.90
2017-12-09T05:55:07.281Z,-2.90
2017-12-09T05:57:34.787Z,-2.90
2017-12-09T06:00:02.300Z,-2.90
2017-12-09T06:02:29.799Z,-2.80
2017-12-09T06:04:58.099Z,-2.80
2017-12-09T06:07:26.366Z,-2.70
2017-12-09T06:09:53.868Z,-2.80
2017-12-09T06:12:21.383Z,-2.70
2017-12-09T06:14:48.891Z,-2.70
2017-12-09T06:17:16.401Z,-2.70
2017-12-09T06:19:43.907Z,-2.80
2017-12-09T06:22:11.426Z,-2.70
2017-12-09T06:24:39.694Z,-2.70
2017-12-09T06:27:07.668Z,-2.70
2017-12-09T06:29:35.942Z,-2.60
2017-12-09T06:32:03.459Z,-2.60
2017-12-09T06:34:30.964Z,-2.60
2017-12-09T06:36:59.258Z,-2.70
2017-12-09T06:39:26.762Z,-2.70
2017-12-09T06:41:54.288Z,-2.60
2017-12-09T06:44:21.799Z,-2.70
2017-12-09T06:46:49.319Z,-2.60
2017-12-09T06:49:16.836Z,-2.70
2017-12-09T06:51:45.128Z,-2.70
2017-12-09T06:54:12.635Z,-2.70
2017-12-09T06:56:40.161Z,-2.70
2017-12-09T06:59:07.662Z,-2.70
2017-12-09T07:01:35.162Z,-2.70
2017-12-09T07:04:02.683Z,-2.70
2017-12-09T07:06:30.189Z,-2.70
2017-12-09T07:08:57.720Z,-2.70
2017-12-09T07:11:25.978Z,-2.70
2017-12-09T07:13:53.499Z,-2.70
2017-12-09T07:16:21.003Z,-2.60
2017-12-09T07:18:49.287Z,-2.70
2017-12-09T07:21:17.550Z,-2.60
2017-12-09T07:23:45.839Z,-2.70
2017-12-09T07:26:14.102Z,-2.80
2017-12-09T07:28:41.614Z,-2.80
2017-12-09T07:31:09.115Z,-2.70
2017-12-09T07:33:36.630Z,-2.80
2017-12-09T07:36:04.137Z,-2.70
2017-12-09T07:38:32.423Z,-2.70
2017-12-09T07:41:00.685Z,-2.60
2017-12-09T07:43:28.198Z,-2.70
2017-12-09T07:45:55.710Z,-2.60
2017-12-09T07:48:23.998Z,-2.60
2017-12-09T07:50:52.263Z,-2.50
2017-12-09T07:53:20.536Z,-2.50
2017-12-09T07:55:48.814Z,-2.40
2017-12-09T07:58:17.075Z,-2.50
2017-12-09T08:00:44.590Z,-2.50
2017-12-09T08:03:12.091Z,-2.30
2017-12-09T08:05:39.614Z,-2.30
2017-12-09T08:08:07.120Z,-2.40
2017-12-09T08:10:35.416Z,-2.40
2017-12-09T08:13:02.919Z,-2.40
2017-12-09T08:15:31.213Z,-2.30
2017-12-09T08:17:58.710Z,-2.30
2017-12-09T08:20:26.236Z,-2.30
2017-12-09T08:22:54.515Z,-2.40
2017-12-09T08:25:22.026Z,-2.40
2017-12-09T08:27:49.523Z,-2.40
2017-12-09T08:30:17.039Z,-2.30
2017-12-09T08:32:44.538Z,-2.20
2017-12-09T08:35:12.839Z,-2.10
2017-12-09T08:37:41.103Z,-2.20
2017-12-09T08:40:09.391Z,-2.20
2017-12-09T08:42:37.662Z,-2.20
2017-12-09T08:45:05.963Z,-2.10
2017-12-09T08:47:33.466Z,-2.10
2017-12-09T08:50:00.968Z,-2.10
2017-12-09T08:52:28.482Z,-2.00
2017-12-09T08:54:55.983Z,-2.00
2017-12-09T08:57:23.499Z,-2.00
2017-12-09T08:59:50.998Z,-2.10
2017-12-09T09:02:18.510Z,-2.10
2017-12-09T09:04:46.002Z,-2.00
2017-12-09T09:07:14.295Z,-1.80
2017-12-09T09:09:41.800Z,-1.80
2017-12-09T09:12:09.314Z,-1.70
2017-12-09T09:14:36.819Z,-1.90
2017-12-09T09:17:04.335Z,-1.80
2017-12-09T09:19:31.838Z,-1.70
2017-12-09T09:21:59.362Z,-1.80
2017-12-09T09:24:26.865Z,-1.90
2017-12-09T09:26:54.374Z,-2.00
2017-12-09T09:29:21.870Z,-2.00
2017-12-09T09:31:49.387Z,-1.90
2017-12-09T09:34:16.887Z,-2.00
2017-12-09T09:36:44.424Z,-2.00
2017-12-09T09:39:11.920Z,-2.00
2017-12-09T09:41:40.225Z,-1.90
2017-12-09T09:44:07.758Z,-2.00
2017-12-09T09:46:36.289Z,-1.90
2017-12-09T09:49:03.823Z,-1.90
2017-12-09T09:51:31.328Z,-1.80
2017-12-09T09:53:58.849Z,-2.00
2017-12-09T09:56:26.350Z,-1.90
2017-12-09T09:58:53.859Z,-1.80
2017-12-09T10:01:21.354Z,-1.90
2017-12-09T10:03:48.866Z,-1.90
2017-12-09T10:06:16.362Z,-1.80
2017-12-09T10:08:43.884Z,-1.90
2017-12-09T10:11:11.383Z,-1.90
2017-12-09T10:13:38.890Z,-1.90
2017-12-09T10:16:07.158Z,-1.90
2017-12-09T10:18:35.443Z,-1.90
2017-12-09T10:21:03.715Z,-1.90
2017-12-09T10:23:31.998Z,-1.70
2017-12-09T10:25:59.507Z,-1.70
2017-12-09T10:28:27.022Z,-1.70
2017-12-09T10:30:54.517Z,-1.70
2017-12-09T10:33:22.057Z,-1.80
2017-12-09T10:35:49.558Z,-1.70
2017-12-09T10:38:17.065Z,-1.80
2017-12-09T10:40:44.578Z,-1.60
2017-12-09T10:43:12.079Z,-1.60
2017-12-09T10:45:39.595Z,-1.50
2017-12-09T10:48:07.100Z,-1.50
2017-12-09T10:50:34.619Z,-1.60
2017-12-09T10:53:02.890Z,-1.50
2017-12-09T10:55:30.411Z,-1.50
2017-12-09T10:57:57.907Z,-1.50
2017-12-09T11:00:26.197Z,-1.60
2017-12-09T11:02:54.471Z,-1.50
2017-12-09T11:05:22.746Z,-1.60
2017-12-09T11:07:51.020Z,-1.60
2017-12-09T11:10:19.299Z,-1.40
2017-12-09T11:12:47.558Z,-1.50
2017-12-09T11:15:15.070Z,-1.50
2017-12-09T11:17:42.575Z,-1.50
2017-12-09T11:20:10.863Z,-1.50
2017-12-09T11:22:39.123Z,-1.40
2017-12-09T11:25:06.639Z,-1.40
2017-12-09T11:27:34.130Z,-1.40
2017-12-09T11:30:01.649Z,-1.20
2017-12-09T11:32:29.160Z,-1.30
2017-12-09T11:34:57.427Z,-1.50
2017-12-09T11:37:24.946Z,-1.50
2017-12-09T11:39:52.451Z,-1.40
2017-12-09T11:42:20.743Z,-1.40
2017-12-09T11:44:49.006Z,-1.30
2017-12-09T11:47:16.519Z,-1.30
2017-12-09T11:49:44.023Z,-1.30
2017-12-09T11:52:12.302Z,-1.40
2017-12-09T11:54:40.567Z,-1.40
2017-12-09T11:57:08.087Z,-1.40
2017-12-09T11:59:35.878Z,-1.30
2017-12-09T12:02:03.395Z,-1.50
2017-12-09T12:04:30.908Z,-1.70
2017-12-09T12:06:58.427Z,-1.70
2017-12-09T12:09:26.220Z,-1.70
2017-12-09T12:11:53.743Z,-1.60
2017-12-09T12:14:21.247Z,-1.70
2017-12-09T12:16:48.763Z,-1.70
2017-12-09T12:19:16.267Z,-1.60
2017-12-09T12:21:44.546Z,-1.50
2017-12-09T12:24:12.805Z,-1.50
2017-12-09T12:26:40.327Z,-1.50
2017-12-09T12:29:07.827Z,-1.70
2017-12-09T12:31:35.327Z,-1.80
2017-12-09T12:34:02.841Z,-1.70
2017-12-09T12:36:30.346Z,-1.50
2017-12-09T12:38:57.867Z,-1.60
2017-12-09T12:41:26.134Z,-1.70
2017-12-09T12:43:53.656Z,-1.80
2017-12-09T12:46:21.158Z,-1.70
2017-12-09T12:48:49.438Z,-1.30
2017-12-09T12:51:17.705Z,-1.20
2017-12-09T12:53:45.256Z,-1.20
2017-12-09T12:56:12.764Z,-1.10
2017-12-09T12:58:40.283Z,-1.30
2017-12-09T13:01:08.556Z,-1.30
2017-12-09T13:03:36.847Z,-1.10
2017-12-09T13:06:05.106Z,-1.30
2017-12-09T13:08:32.624Z,-1.30
2017-12-09T13:11:00.118Z,-1.40
2017-12-09T13:13:27.635Z,-1.40
2017-12-09T13:15:55.436Z,-1.30
2017-12-09T13:18:22.947Z,-1.40
2017-12-09T13:20:50.451Z,-1.40
2017-12-09T13:23:17.978Z,-1.40
2017-12-09T13:25:45.479Z,-1.40
2017-12-09T13:28:12.986Z,-1.30
2017-12-09T13:30:40.501Z,-1.50
2017-12-09T13:33:08.763Z,-1.20
2017-12-09T13:35:36.280Z,-1.30
2017-12-09T13:38:03.779Z,-1.10
2017-12-09T13:40:31.299Z,-0.80
2017-12-09T13:42:58.790Z,-0.80
2017-12-09T13:45:26.314Z,-0.70
2017-12-09T13:47:53.810Z,-0.60
2017-12-09T13:50:21.349Z,-0.70
2017-12-09T13:52:48.855Z,-0.90
2017-12-09T13:55:16.845Z,-1.00
2017-12-09T13:57:44.347Z,-1.00
2017-12-09T14:00:11.868Z,-1.10
2017-12-09T14:02:39.362Z,-1.20
2017-12-09T14:05:06.883Z,-1.20
2017-12-09T14:07:34.392Z,-1.30
2017-12-09T14:10:01.915Z,-1.40
2017-12-09T14:12:29.415Z,-1.30
2017-12-09T14:14:57.699Z,-1.50
2017-12-09T14:17:25.958Z,-1.40
2017-12-09T14:19:53.486Z,-1.40
2017-12-09T14:22:20.991Z,-1.40
2017-12-09T14:24:49.255Z,-1.50
2017-12-09T14:27:17.534Z,-1.40
2017-12-09T14:29:45.794Z,-1.50
2017-12-09T14:32:13.307Z,-1.50
2017-12-09T14:34:40.820Z,-1.50
2017-12-09T14:37:08.334Z,-1.50
2017-12-09T14:39:35.830Z,-1.40
2017-12-09T14:42:03.346Z,-1.40
2017-12-09T14:44:30.842Z,-1.50
2017-12-09T14:46:58.360Z,-1.60
2017-12-09T14:49:25.854Z,-1.60
2017-12-09T14:51:53.371Z,-1.60
2017-12-09T14:54:20.870Z,-1.50
2017-12-09T14:56:48.382Z,-1.60
2017-12-09T14:59:15.874Z,-1.60
2017-12-09T15:01:43.388Z,-1.60
2017-12-09T15:04:11.264Z,-1.70
2017-12-09T15:06:38.779Z,-1.80
2017-12-09T15:09:06.279Z,-1.90
2017-12-09T15:11:33.799Z,-1.90
2017-12-09T15:14:02.084Z,-1.90
2017-12-09T15:16:30.372Z,-2.00
2017-12-09T15:18:57.867Z,-2.00
2017-12-09T15:21:25.367Z,-2.00
2017-12-09T15:23:53.655Z,-2.10
2017-12-09T15:26:21.927Z,-2.00
2017-12-09T15:28:50.218Z,-2.00
2017-12-09T15:31:17.719Z,-2.00
2017-12-09T15:33:45.236Z,-2.10
2017-12-09T15:36:12.767Z,-2.30
2017-12-09T15:38:41.047Z,-2.40
2017-12-09T15:41:09.319Z,-2.20
2017-12-09T15:43:36.831Z,-2.30
2017-12-09T15:46:04.331Z,-2.40
2017-12-09T15:48:31.879Z,-2.30
2017-12-09T15:50:59.401Z,-2.30
2017-12-09T15:53:26.931Z,-2.40
2017-12-09T15:55:54.487Z,-2.40
2017-12-09T15:58:22.770Z,-2.50
2017-12-09T16:00:50.307Z,-2.50
2017-12-09T16:03:18.618Z,-2.50
2017-12-09T16:05:46.147Z,-2.50
2017-12-09T16:08:14.444Z,-2.50
2017-12-09T16:10:41.961Z,-2.50
2017-12-09T16:13:09.517Z,-2.70
2017-12-09T16:15:37.045Z,-2.60
2017-12-09T16:18:04.609Z,-2.60
2017-12-09T16:20:32.148Z,-2.60
2017-12-09T16:22:59.660Z,-2.60
2017-12-09T16:25:27.184Z,-2.60
2017-12-09T16:27:54.682Z,-2.60
2017-12-09T16:30:22.194Z,-2.70
2017-12-09T16:32:49.701Z,-2.80
2017-12-09T16:35:18.000Z,-2.80
2017-12-09T16:37:45.507Z,-2.80
2017-12-09T16:40:13.028Z,-2.80
2017-12-09T16:42:40.534Z,-2.80
2017-12-09T16:45:08.048Z,-2.80
2017-12-09T16:47:35.556Z,-2.80
2017-12-09T16:50:03.083Z,-2.80
2017-12-09T16:52:31.356Z,-2.80
2017-12-09T16:54:58.872Z,-2.70
2017-12-09T16:57:27.144Z,-2.80
2017-12-09T16:59:55.432Z,-2.90
2017-12-09T17:02:22.936Z,-2.90
2017-12-09T17:04:50.460Z,-2.80
2017-12-09T17:07:17.959Z,-2.90
2017-12-09T17:09:45.487Z,-2.90
2017-12-09T17:12:12.982Z,-2.90
2017-12-09T17:14:40.506Z,-3.00
2017-12-09T17:17:08.005Z,-2.90
2017-12-09T17:19:35.515Z,-3.10
2017-12-09T17:22:03.039Z,-3.00
2017-12-09T17:24:31.306Z,-3.00
2017-12-09T17:26:59.598Z,-3.00
2017-12-09T17:29:27.862Z,-3.00
2017-12-09T17:31:56.151Z,-3.10
2017-12-09T17:34:24.411Z,-3.10
2017-12-09T17:36:52.694Z,-3.10
2017-12-09T17:39:20.958Z,-3.10
2017-12-09T17:41:48.482Z,-3.10
2017-12-09T17:44:15.988Z,-3.10
2017-12-09T17:46:44.283Z,-3.00
2017-12-09T17:49:12.012Z,-3.00
2017-12-09T17:51:40.543Z,-3.10
2017-12-09T17:54:08.046Z,-3.10
2017-12-09T17:56:37.165Z,-3.10
2017-12-09T17:59:05.429Z,-3.10
2017-12-09T18:01:33.710Z,-3.10
2017-12-09T18:04:01.971Z,-3.10
2017-12-09T18:06:29.487Z,-3.10
2017-12-09T18:08:56.991Z,-3.10
2017-12-09T18:11:24.523Z,-3.10
2017-12-09T18:13:52.018Z,-3.20
2017-12-09T18:16:20.283Z,-3.10
2017-12-09T18:18:47.806Z,-3.10
2017-12-09T18:21:15.305Z,-3.10
2017-12-09T18:23:43.604Z,-3.10
2017-12-09T18:26:11.121Z,-3.10
2017-12-09T18:28:38.651Z,-3.10
2017-12-09T18:31:06.152Z,-3.10
2017-12-09T18:33:34.447Z,-3.10
2017-12-09T18:36:02.719Z,-3.20
2017-12-09T18:38:31.007Z,-3.20
2017-12-09T18:40:58.507Z,-3.20
2017-12-09T18:43:26.023Z,-3.20
2017-12-09T18:45:53.535Z,-3.10
2017-12-09T18:48:21.046Z,-3.20
2017-12-09T18:50:48.551Z,-3.10
2017-12-09T18:53:16.063Z,-3.20
2017-12-09T18:55:43.554Z,-3.20
2017-12-09T18:58:11.074Z,-3.10
2017-12-09T19:00:38.579Z,-3.10
2017-12-09T19:03:06.091Z,-3.20
2017-12-09T19:05:33.595Z,-3.10
2017-12-09T19:08:01.133Z,-3.20
2017-12-09T19:10:28.631Z,-3.30
2017-12-09T19:12:56.131Z,-3.20
2017-12-09T19:15:23.655Z,-3.20
2017-12-09T19:17:51.923Z,-3.10
2017-12-09T19:20:19.435Z,-3.20
2017-12-09T19:22:46.936Z,-3.20
2017-12-09T19:25:14.457Z,-3.20
2017-12-09T19:27:41.956Z,-3.20
2017-12-09T19:30:09.467Z,-3.20
2017-12-09T19:32:36.975Z,-3.20
2017-12-09T19:35:05.260Z,-3.30
2017-12-09T19:37:33.528Z,-3.30
2017-12-09T19:40:01.823Z,-3.30
2017-12-09T19:42:29.327Z,-3.40
2017-12-09T19:44:56.850Z,-3.30
2017-12-09T19:47:24.351Z,-3.30
2017-12-09T19:49:51.868Z,-3.30
2017-12-09T19:52:19.371Z,-3.30
2017-12-09T19:54:46.891Z,-3.30
2017-12-09T19:57:14.391Z,-3.40
2017-12-09T19:59:41.908Z,-3.40
2017-12-09T20:02:09.410Z,-3.40
2017-12-09T20:04:36.960Z,-3.40
2017-12-09T20:07:04.835Z,-3.40
2017-12-09T20:09:32.330Z,-3.40
2017-12-09T20:11:59.856Z,-3.40
2017-12-09T20:14:27.350Z,-3.40
2017-12-09T20:16:54.862Z,-3.50
2017-12-09T20:19:22.367Z,-3.50
2017-12-09T20:21:49.884Z,-3.50
2017-12-09T20:24:17.386Z,-3.50
2017-12-09T20:26:44.918Z,-3.50
2017-12-09T20:29:13.187Z,-3.60
2017-12-09T20:31:41.474Z,-3.50
2017-12-09T20:34:09.747Z,-3.50
2017-12-09T20:36:38.045Z,-3.50
2017-12-09T20:39:05.560Z,-3.50
2017-12-09T20:41:33.081Z,-3.50
2017-12-09T20:44:00.578Z,-3.50
2017-12-09T20:46:28.103Z,-3.60
2017-12-09T20:48:55.599Z,-3.50
2017-12-09T20:51:23.115Z,-3.60
2017-12-09T20:53:50.653Z,-3.70
2017-12-09T20:56:18.911Z,-3.60
2017-12-09T20:58:47.182Z,-3.60
2017-12-09T21:01:15.464Z,-3.60
2017-12-09T21:03:42.975Z,-3.70
2017-12-09T21:06:10.486Z,-3.70
2017-12-09T21:08:39.036Z,-3.60
2017-12-09T21:11:06.587Z,-3.60
2017-12-09T21:13:34.086Z,-3.60
2017-12-09T21:16:01.587Z,-3.70
2017-12-09T21:18:29.103Z,-3.60
2017-12-09T21:20:56.598Z,-3.60
2017-12-09T21:23:24.119Z,-3.70
2017-12-09T21:25:51.623Z,-3.70
2017-12-09T21:28:19.143Z,-3.70
2017-12-09T21:30:46.650Z,-3.80
2017-12-09T21:33:14.171Z,-3.70
2017-12-09T21:35:41.662Z,-3.80
2017-12-09T21:38:09.174Z,-3.80
2017-12-09T21:40:36.669Z,-3.80
2017-12-09T21:43:04.179Z,-3.80
2017-12-09T21:45:32.444Z,-3.80
2017-12-09T21:48:00.731Z,-3.80
2017-12-09T21:50:28.990Z,-3.90
2017-12-09T21:52:57.270Z,-3.90
2017-12-09T21:55:25.533Z,-3.80
2017-12-09T21:57:53.054Z,-3.80
2017-12-09T22:00:20.556Z,-3.80
2017-12-09T22:02:48.847Z,-3.90
2017-12-09T22:05:17.171Z,-3.90
2017-12-09T22:07:45.451Z,-3.80
2017-12-09T22:10:12.948Z,-3.90
2017-12-09T22:12:41.251Z,-3.80
2017-12-09T22:15:08.759Z,-3.80
2017-12-09T22:17:36.259Z,-3.70
2017-12-09T22:20:03.783Z,-3.80
2017-12-09T22:22:31.278Z,-3.80
2017-12-09T22:24:58.794Z,-3.80
2017-12-09T22:27:26.298Z,-3.80
2017-12-09T22:29:53.816Z,-3.90
2017-12-09T22:32:21.314Z,-3.80
2017-12-09T22:34:48.832Z,-3.90
2017-12-09T22:37:16.328Z,-3.80
2017-12-09T22:39:43.849Z,-3.80
2017-12-09T22:42:11.348Z,-3.80
2017-12-09T22:44:38.872Z,-3.90
2017-12-09T22:47:07.148Z,-3.90
2017-12-09T22:49:35.426Z,-3.80
2017-12-09T22:52:03.690Z,-3.90
2017-12-09T22:54:31.207Z,-3.90
2017-12-09T22:56:58.707Z,-3.90
2017-12-09T22:59:26.225Z,-3.90
2017-12-09T23:01:53.727Z,-3.90
2017-12-09T23:04:21.248Z,-3.90
2017-12-09T23:06:49.514Z,-3.90
2017-12-09T23:09:17.027Z,-4.00
2017-12-09T23:11:45.287Z,-4.10
2017-12-09T23:14:12.810Z,-4.10
2017-12-09T23:16:40.318Z,-4.10
2017-12-09T23:19:08.579Z,-4.20
2017-12-09T23:21:36.096Z,-4.20
2017-12-09T23:24:03.591Z,-4.20
2017-12-09T23:26:31.156Z,-4.30
2017-12-09T23:28:58.619Z,-4.40
2017-12-09T23:31:26.143Z,-4.30
2017-12-09T23:33:53.638Z,-4.30
2017-12-09T23:36:21.923Z,-4.50
2017-12-09T23:38:50.179Z,-4.50
2017-12-09T23:41:17.711Z,-4.60
2017-12-09T23:43:45.211Z,-4.60
2017-12-09T23:46:13.499Z,-4.50
2017-12-09T23:48:41.763Z,-4.50
2017-12-09T23:51:10.048Z,-4.60
2017-12-09T23:53:38.310Z,-4.50
2017-12-09T23:56:06.604Z,-4.50
2017-12-09T23:58:34.870Z,-4.60
